Tabas, Iran
Current Conditions -  °F | °C
As of 11:00 PM on Sunday 21 Dec 2014 (Local Time) from OIMB Reporting Station
Scattered Clouds Scattered Clouds  
Wind Chill: 41°   Ceiling: Unl
Heat Index: 45°   Visibility: 6mi
Dew Point: 28°   Wind: 7mph
Humidity: 53%   Direction: 340°NNW
Pressure: 29.94"   Gusts: NA
Location:  33.59°N, 56.92°E
Report Text: OIMB 212000Z 34006KT 9999 FEW030 SCT090 07/M02 Q1014
Loading
Personal Weather Stations






























Interactive Weather Map New forecast layout! Learn more

10-Day Weather Forecast

Advertisements
Track Severe Weather on mobile